sensor_id;sensor_type;location;lat;lon;timestamp;P1;durP1;ratioP1;P2;durP2;ratioP2
47866;SDS011;33628;50.806;11.586;2023-08-21T00:00:41;29.50;;;23.52;;
47866;SDS011;33628;50.806;11.586;2023-08-21T00:03:07;27.13;;;22.83;;
47866;SDS011;33628;50.806;11.586;2023-08-21T00:05:34;26.58;;;22.13;;
47866;SDS011;33628;50.806;11.586;2023-08-21T00:08:00;30.13;;;23.27;;
47866;SDS011;33628;50.806;11.586;2023-08-21T00:10:27;29.30;;;23.63;;
47866;SDS011;33628;50.806;11.586;2023-08-21T00:12:55;29.42;;;23.58;;
47866;SDS011;33628;50.806;11.586;2023-08-21T00:15:23;30.90;;;22.65;;
47866;SDS011;33628;50.806;11.586;2023-08-21T00:17:50;29.42;;;23.90;;
47866;SDS011;33628;50.806;11.586;2023-08-21T00:20:16;28.83;;;24.70;;
47866;SDS011;33628;50.806;11.586;2023-08-21T00:22:43;29.65;;;23.75;;
47866;SDS011;33628;50.806;11.586;2023-08-21T00:25:10;26.70;;;23.75;;
47866;SDS011;33628;50.806;11.586;2023-08-21T00:27:36;29.25;;;23.27;;
47866;SDS011;33628;50.806;11.586;2023-08-21T00:30:03;30.83;;;23.75;;
47866;SDS011;33628;50.806;11.586;2023-08-21T00:32:32;26.13;;;22.70;;
47866;SDS011;33628;50.806;11.586;2023-08-21T00:34:59;27.23;;;23.70;;
47866;SDS011;33628;50.806;11.586;2023-08-21T00:37:26;35.15;;;26.25;;
47866;SDS011;33628;50.806;11.586;2023-08-21T00:39:52;33.50;;;26.08;;
47866;SDS011;33628;50.806;11.586;2023-08-21T00:42:19;33.95;;;23.98;;
47866;SDS011;33628;50.806;11.586;2023-08-21T00:44:46;37.33;;;26.13;;
47866;SDS011;33628;50.806;11.586;2023-08-21T00:47:12;42.08;;;28.40;;
47866;SDS011;33628;50.806;11.586;2023-08-21T00:49:40;52.10;;;29.48;;
47866;SDS011;33628;50.806;11.586;2023-08-21T00:52:09;50.70;;;28.83;;
47866;SDS011;33628;50.806;11.586;2023-08-21T00:54:37;56.95;;;29.65;;
47866;SDS011;33628;50.806;11.586;2023-08-21T00:57:04;52.60;;;30.00;;
47866;SDS011;33628;50.806;11.586;2023-08-21T00:59:31;71.10;;;32.67;;
47866;SDS011;33628;50.806;11.586;2023-08-21T01:01:58;65.72;;;30.42;;
47866;SDS011;33628;50.806;11.586;2023-08-21T01:04:24;71.18;;;30.90;;
47866;SDS011;33628;50.806;11.586;2023-08-21T01:06:52;54.63;;;32.42;;
47866;SDS011;33628;50.806;11.586;2023-08-21T01:09:21;62.95;;;31.85;;
47866;SDS011;33628;50.806;11.586;2023-08-21T01:11:50;101.72;;;32.17;;
47866;SDS011;33628;50.806;11.586;2023-08-21T01:14:22;75.95;;;33.33;;
47866;SDS011;33628;50.806;11.586;2023-08-21T01:16:55;58.50;;;32.22;;
47866;SDS011;33628;50.806;11.586;2023-08-21T01:19:24;74.05;;;32.70;;
47866;SDS011;33628;50.806;11.586;2023-08-21T01:21:59;67.70;;;34.53;;
47866;SDS011;33628;50.806;11.586;2023-08-21T01:24:28;55.08;;;34.55;;
47866;SDS011;33628;50.806;11.586;2023-08-21T01:26:54;63.70;;;33.72;;
47866;SDS011;33628;50.806;11.586;2023-08-21T01:29:21;41.05;;;29.50;;
47866;SDS011;33628;50.806;11.586;2023-08-21T01:31:50;42.08;;;29.48;;
47866;SDS011;33628;50.806;11.586;2023-08-21T01:34:21;39.30;;;27.90;;
47866;SDS011;33628;50.806;11.586;2023-08-21T01:36:48;37.65;;;28.50;;
47866;SDS011;33628;50.806;11.586;2023-08-21T01:39:15;46.47;;;30.08;;
47866;SDS011;33628;50.806;11.586;2023-08-21T01:41:43;41.67;;;29.80;;
47866;SDS011;33628;50.806;11.586;2023-08-21T01:44:10;40.42;;;29.17;;
47866;SDS011;33628;50.806;11.586;2023-08-21T01:46:37;51.90;;;29.10;;
47866;SDS011;33628;50.806;11.586;2023-08-21T01:49:03;54.05;;;29.25;;
47866;SDS011;33628;50.806;11.586;2023-08-21T01:51:30;40.92;;;29.70;;
47866;SDS011;33628;50.806;11.586;2023-08-21T01:53:57;55.53;;;31.75;;
47866;SDS011;33628;50.806;11.586;2023-08-21T01:56:23;51.67;;;30.77;;
47866;SDS011;33628;50.806;11.586;2023-08-21T01:58:51;48.22;;;31.55;;
47866;SDS011;33628;50.806;11.586;2023-08-21T02:01:18;62.05;;;32.08;;
47866;SDS011;33628;50.806;11.586;2023-08-21T02:03:44;53.38;;;32.55;;
47866;SDS011;33628;50.806;11.586;2023-08-21T02:06:11;63.95;;;33.10;;
47866;SDS011;33628;50.806;11.586;2023-08-21T02:08:39;80.57;;;32.38;;
47866;SDS011;33628;50.806;11.586;2023-08-21T02:11:05;69.07;;;31.08;;
47866;SDS011;33628;50.806;11.586;2023-08-21T02:13:32;96.53;;;33.22;;
47866;SDS011;33628;50.806;11.586;2023-08-21T02:16:00;73.85;;;31.08;;
47866;SDS011;33628;50.806;11.586;2023-08-21T02:18:27;85.78;;;30.40;;
47866;SDS011;33628;50.806;11.586;2023-08-21T02:20:53;59.95;;;33.30;;
47866;SDS011;33628;50.806;11.586;2023-08-21T02:23:20;70.95;;;32.40;;
47866;SDS011;33628;50.806;11.586;2023-08-21T02:25:47;76.78;;;32.45;;
47866;SDS011;33628;50.806;11.586;2023-08-21T02:28:16;64.65;;;33.20;;
47866;SDS011;33628;50.806;11.586;2023-08-21T02:30:43;62.72;;;33.50;;
47866;SDS011;33628;50.806;11.586;2023-08-21T02:33:11;72.47;;;34.75;;
47866;SDS011;33628;50.806;11.586;2023-08-21T02:35:38;55.20;;;31.77;;
47866;SDS011;33628;50.806;11.586;2023-08-21T02:38:05;66.90;;;33.45;;
47866;SDS011;33628;50.806;11.586;2023-08-21T02:40:35;64.20;;;30.98;;
47866;SDS011;33628;50.806;11.586;2023-08-21T02:43:03;54.10;;;30.42;;
47866;SDS011;33628;50.806;11.586;2023-08-21T02:45:30;65.45;;;30.80;;
47866;SDS011;33628;50.806;11.586;2023-08-21T02:47:57;67.22;;;30.85;;
47866;SDS011;33628;50.806;11.586;2023-08-21T02:50:25;54.40;;;33.08;;
47866;SDS011;33628;50.806;11.586;2023-08-21T02:52:52;57.25;;;32.85;;
47866;SDS011;33628;50.806;11.586;2023-08-21T02:55:18;54.15;;;33.35;;
47866;SDS011;33628;50.806;11.586;2023-08-21T02:57:46;51.65;;;33.58;;
47866;SDS011;33628;50.806;11.586;2023-08-21T03:00:12;82.50;;;34.00;;
47866;SDS011;33628;50.806;11.586;2023-08-21T03:02:39;59.90;;;32.53;;
47866;SDS011;33628;50.806;11.586;2023-08-21T03:05:09;62.90;;;33.60;;
47866;SDS011;33628;50.806;11.586;2023-08-21T03:07:37;56.60;;;31.55;;
47866;SDS011;33628;50.806;11.586;2023-08-21T03:10:05;46.22;;;32.38;;
47866;SDS011;33628;50.806;11.586;2023-08-21T03:12:32;55.10;;;31.58;;
47866;SDS011;33628;50.806;11.586;2023-08-21T03:14:59;48.75;;;29.27;;
47866;SDS011;33628;50.806;11.586;2023-08-21T03:17:26;48.42;;;31.52;;
47866;SDS011;33628;50.806;11.586;2023-08-21T03:19:52;60.90;;;33.40;;
47866;SDS011;33628;50.806;11.586;2023-08-21T03:22:19;50.30;;;32.45;;
47866;SDS011;33628;50.806;11.586;2023-08-21T03:24:47;59.97;;;32.67;;
47866;SDS011;33628;50.806;11.586;2023-08-21T03:27:14;48.38;;;33.22;;
47866;SDS011;33628;50.806;11.586;2023-08-21T03:29:42;58.40;;;35.33;;
47866;SDS011;33628;50.806;11.586;2023-08-21T03:32:14;50.08;;;35.83;;
47866;SDS011;33628;50.806;11.586;2023-08-21T03:34:41;56.83;;;36.50;;
47866;SDS011;33628;50.806;11.586;2023-08-21T03:37:08;53.63;;;35.17;;
47866;SDS011;33628;50.806;11.586;2023-08-21T03:39:35;51.60;;;36.65;;
47866;SDS011;33628;50.806;11.586;2023-08-21T03:42:04;52.65;;;36.28;;
47866;SDS011;33628;50.806;11.586;2023-08-21T03:44:31;50.45;;;34.65;;
47866;SDS011;33628;50.806;11.586;2023-08-21T03:46:59;54.97;;;35.08;;
47866;SDS011;33628;50.806;11.586;2023-08-21T03:49:25;48.35;;;34.85;;
47866;SDS011;33628;50.806;11.586;2023-08-21T03:51:53;56.75;;;34.35;;
47866;SDS011;33628;50.806;11.586;2023-08-21T03:54:20;49.97;;;33.95;;
47866;SDS011;33628;50.806;11.586;2023-08-21T03:56:47;54.08;;;34.20;;
47866;SDS011;33628;50.806;11.586;2023-08-21T03:59:15;53.50;;;31.42;;
47866;SDS011;33628;50.806;11.586;2023-08-21T04:01:41;53.97;;;33.78;;
47866;SDS011;33628;50.806;11.586;2023-08-21T04:04:09;54.90;;;32.67;;
47866;SDS011;33628;50.806;11.586;2023-08-21T04:06:36;56.78;;;32.20;;
47866;SDS011;33628;50.806;11.586;2023-08-21T04:09:02;56.88;;;30.63;;
47866;SDS011;33628;50.806;11.586;2023-08-21T04:11:32;47.90;;;32.08;;
47866;SDS011;33628;50.806;11.586;2023-08-21T04:13:59;38.08;;;28.15;;
47866;SDS011;33628;50.806;11.586;2023-08-21T04:16:28;48.17;;;27.90;;
47866;SDS011;33628;50.806;11.586;2023-08-21T04:18:57;150.10;;;27.77;;
47866;SDS011;33628;50.806;11.586;2023-08-21T04:21:23;48.30;;;26.42;;
47866;SDS011;33628;50.806;11.586;2023-08-21T04:23:50;55.97;;;26.40;;
47866;SDS011;33628;50.806;11.586;2023-08-21T04:26:17;75.28;;;29.77;;
47866;SDS011;33628;50.806;11.586;2023-08-21T04:28:43;56.35;;;28.90;;
47866;SDS011;33628;50.806;11.586;2023-08-21T04:31:11;61.72;;;27.25;;
47866;SDS011;33628;50.806;11.586;2023-08-21T04:33:39;46.42;;;27.13;;
47866;SDS011;33628;50.806;11.586;2023-08-21T04:36:06;44.17;;;26.88;;
47866;SDS011;33628;50.806;11.586;2023-08-21T04:38:33;36.53;;;26.60;;
47866;SDS011;33628;50.806;11.586;2023-08-21T04:41:06;38.65;;;26.50;;
47866;SDS011;33628;50.806;11.586;2023-08-21T04:43:34;34.78;;;25.33;;
47866;SDS011;33628;50.806;11.586;2023-08-21T04:46:03;29.05;;;22.98;;
47866;SDS011;33628;50.806;11.586;2023-08-21T04:48:30;29.70;;;22.48;;
47866;SDS011;33628;50.806;11.586;2023-08-21T04:50:58;30.08;;;23.80;;
47866;SDS011;33628;50.806;11.586;2023-08-21T04:53:25;27.92;;;22.63;;
47866;SDS011;33628;50.806;11.586;2023-08-21T04:55:52;35.35;;;23.58;;
47866;SDS011;33628;50.806;11.586;2023-08-21T04:58:19;32.03;;;24.33;;
47866;SDS011;33628;50.806;11.586;2023-08-21T05:00:46;41.30;;;25.90;;
47866;SDS011;33628;50.806;11.586;2023-08-21T05:03:13;32.60;;;24.50;;
47866;SDS011;33628;50.806;11.586;2023-08-21T05:05:51;27.65;;;23.35;;
47866;SDS011;33628;50.806;11.586;2023-08-21T05:08:20;29.88;;;23.20;;
47866;SDS011;33628;50.806;11.586;2023-08-21T05:10:47;33.40;;;22.63;;
47866;SDS011;33628;50.806;11.586;2023-08-21T05:13:13;31.33;;;23.63;;
47866;SDS011;33628;50.806;11.586;2023-08-21T05:15:43;28.40;;;21.77;;
47866;SDS011;33628;50.806;11.586;2023-08-21T05:18:10;34.42;;;24.45;;
47866;SDS011;33628;50.806;11.586;2023-08-21T05:20:37;30.58;;;22.90;;
47866;SDS011;33628;50.806;11.586;2023-08-21T05:23:05;27.88;;;22.98;;
47866;SDS011;33628;50.806;11.586;2023-08-21T05:25:34;33.92;;;22.63;;
47866;SDS011;33628;50.806;11.586;2023-08-21T05:28:00;33.35;;;23.73;;
47866;SDS011;33628;50.806;11.586;2023-08-21T05:30:27;30.95;;;23.25;;
47866;SDS011;33628;50.806;11.586;2023-08-21T05:32:55;42.72;;;25.70;;
47866;SDS011;33628;50.806;11.586;2023-08-21T05:35:22;51.72;;;25.55;;
47866;SDS011;33628;50.806;11.586;2023-08-21T05:37:51;36.28;;;25.13;;
47866;SDS011;33628;50.806;11.586;2023-08-21T05:40:18;34.17;;;25.90;;
47866;SDS011;33628;50.806;11.586;2023-08-21T05:42:46;36.78;;;27.33;;
47866;SDS011;33628;50.806;11.586;2023-08-21T05:45:13;46.70;;;28.08;;
47866;SDS011;33628;50.806;11.586;2023-08-21T05:47:40;44.42;;;28.00;;
47866;SDS011;33628;50.806;11.586;2023-08-21T05:50:07;52.38;;;29.23;;
47866;SDS011;33628;50.806;11.586;2023-08-21T05:52:34;35.30;;;27.52;;
47866;SDS011;33628;50.806;11.586;2023-08-21T05:55:01;41.35;;;27.95;;
47866;SDS011;33628;50.806;11.586;2023-08-21T05:57:28;37.92;;;27.83;;
47866;SDS011;33628;50.806;11.586;2023-08-21T05:59:57;37.40;;;28.23;;
47866;SDS011;33628;50.806;11.586;2023-08-21T06:02:26;41.47;;;29.42;;
47866;SDS011;33628;50.806;11.586;2023-08-21T06:04:52;36.92;;;27.45;;
47866;SDS011;33628;50.806;11.586;2023-08-21T06:07:21;34.03;;;26.58;;
47866;SDS011;33628;50.806;11.586;2023-08-21T06:09:48;37.50;;;26.20;;
47866;SDS011;33628;50.806;11.586;2023-08-21T06:12:15;34.30;;;25.50;;
47866;SDS011;33628;50.806;11.586;2023-08-21T06:14:43;40.50;;;27.25;;
47866;SDS011;33628;50.806;11.586;2023-08-21T06:17:11;39.33;;;28.55;;
47866;SDS011;33628;50.806;11.586;2023-08-21T06:19:37;49.13;;;26.73;;
47866;SDS011;33628;50.806;11.586;2023-08-21T06:22:04;39.72;;;28.65;;
47866;SDS011;33628;50.806;11.586;2023-08-21T06:24:32;36.45;;;27.73;;
47866;SDS011;33628;50.806;11.586;2023-08-21T06:27:02;38.92;;;27.13;;
47866;SDS011;33628;50.806;11.586;2023-08-21T06:29:29;36.92;;;27.85;;
47866;SDS011;33628;50.806;11.586;2023-08-21T06:31:56;40.20;;;26.92;;
47866;SDS011;33628;50.806;11.586;2023-08-21T06:34:25;38.25;;;27.17;;
47866;SDS011;33628;50.806;11.586;2023-08-21T06:36:52;34.75;;;27.35;;
47866;SDS011;33628;50.806;11.586;2023-08-21T06:39:18;39.22;;;29.13;;
47866;SDS011;33628;50.806;11.586;2023-08-21T06:41:45;41.70;;;27.65;;
47866;SDS011;33628;50.806;11.586;2023-08-21T06:44:17;33.05;;;24.75;;
47866;SDS011;33628;50.806;11.586;2023-08-21T06:46:44;33.42;;;26.00;;
47866;SDS011;33628;50.806;11.586;2023-08-21T06:49:13;31.08;;;25.95;;
47866;SDS011;33628;50.806;11.586;2023-08-21T06:51:41;28.63;;;24.35;;
47866;SDS011;33628;50.806;11.586;2023-08-21T06:54:08;33.05;;;25.67;;
47866;SDS011;33628;50.806;11.586;2023-08-21T06:56:35;34.95;;;27.52;;
47866;SDS011;33628;50.806;11.586;2023-08-21T06:59:02;35.80;;;27.88;;
47866;SDS011;33628;50.806;11.586;2023-08-21T07:01:29;39.13;;;30.23;;
47866;SDS011;33628;50.806;11.586;2023-08-21T07:03:57;43.00;;;32.75;;
47866;SDS011;33628;50.806;11.586;2023-08-21T07:06:24;49.80;;;33.75;;
47866;SDS011;33628;50.806;11.586;2023-08-21T07:08:56;53.08;;;35.42;;
47866;SDS011;33628;50.806;11.586;2023-08-21T07:11:23;50.28;;;35.47;;
47866;SDS011;33628;50.806;11.586;2023-08-21T07:13:50;44.72;;;33.70;;
47866;SDS011;33628;50.806;11.586;2023-08-21T07:16:19;40.90;;;31.42;;
47866;SDS011;33628;50.806;11.586;2023-08-21T07:18:46;42.95;;;30.73;;
47866;SDS011;33628;50.806;11.586;2023-08-21T07:21:13;40.95;;;30.25;;
47866;SDS011;33628;50.806;11.586;2023-08-21T07:23:40;35.78;;;27.63;;
47866;SDS011;33628;50.806;11.586;2023-08-21T07:26:09;36.40;;;27.88;;
47866;SDS011;33628;50.806;11.586;2023-08-21T07:28:35;29.83;;;24.55;;
47866;SDS011;33628;50.806;11.586;2023-08-21T07:31:02;28.88;;;23.00;;
47866;SDS011;33628;50.806;11.586;2023-08-21T07:33:29;22.98;;;19.88;;
47866;SDS011;33628;50.806;11.586;2023-08-21T07:36:01;25.67;;;21.10;;
47866;SDS011;33628;50.806;11.586;2023-08-21T07:38:29;28.15;;;20.88;;
47866;SDS011;33628;50.806;11.586;2023-08-21T07:41:03;24.45;;;18.77;;
47866;SDS011;33628;50.806;11.586;2023-08-21T07:43:32;20.73;;;15.70;;
47866;SDS011;33628;50.806;11.586;2023-08-21T07:46:01;15.15;;;13.38;;
47866;SDS011;33628;50.806;11.586;2023-08-21T07:48:28;17.38;;;12.82;;
47866;SDS011;33628;50.806;11.586;2023-08-21T07:50:55;17.08;;;13.50;;
47866;SDS011;33628;50.806;11.586;2023-08-21T07:53:22;16.92;;;12.75;;
47866;SDS011;33628;50.806;11.586;2023-08-21T07:55:53;18.73;;;12.18;;
47866;SDS011;33628;50.806;11.586;2023-08-21T07:58:20;14.02;;;12.57;;
47866;SDS011;33628;50.806;11.586;2023-08-21T08:00:48;15.02;;;12.70;;
47866;SDS011;33628;50.806;11.586;2023-08-21T08:03:14;16.63;;;12.05;;
47866;SDS011;33628;50.806;11.586;2023-08-21T08:05:42;16.02;;;12.65;;
47866;SDS011;33628;50.806;11.586;2023-08-21T08:08:09;19.67;;;12.13;;
47866;SDS011;33628;50.806;11.586;2023-08-21T08:10:38;14.15;;;10.77;;
47866;SDS011;33628;50.806;11.586;2023-08-21T08:13:05;17.08;;;10.98;;
47866;SDS011;33628;50.806;11.586;2023-08-21T08:15:32;11.68;;;9.95;;
47866;SDS011;33628;50.806;11.586;2023-08-21T08:18:03;13.77;;;11.02;;
47866;SDS011;33628;50.806;11.586;2023-08-21T08:20:31;11.20;;;9.20;;
47866;SDS011;33628;50.806;11.586;2023-08-21T08:22:58;13.18;;;9.90;;
47866;SDS011;33628;50.806;11.586;2023-08-21T08:25:25;15.85;;;10.20;;
47866;SDS011;33628;50.806;11.586;2023-08-21T08:27:53;12.98;;;9.93;;
47866;SDS011;33628;50.806;11.586;2023-08-21T08:30:20;13.40;;;10.32;;
47866;SDS011;33628;50.806;11.586;2023-08-21T08:32:46;15.00;;;8.40;;
47866;SDS011;33628;50.806;11.586;2023-08-21T08:35:14;10.57;;;7.88;;
47866;SDS011;33628;50.806;11.586;2023-08-21T08:37:41;11.48;;;8.27;;
47866;SDS011;33628;50.806;11.586;2023-08-21T08:40:09;13.57;;;8.55;;
47866;SDS011;33628;50.806;11.586;2023-08-21T08:42:36;10.52;;;7.85;;
47866;SDS011;33628;50.806;11.586;2023-08-21T08:45:04;10.02;;;7.80;;
47866;SDS011;33628;50.806;11.586;2023-08-21T08:47:33;11.95;;;8.27;;
47866;SDS011;33628;50.806;11.586;2023-08-21T08:50:05;9.82;;;7.50;;
47866;SDS011;33628;50.806;11.586;2023-08-21T08:52:36;11.35;;;8.50;;
47866;SDS011;33628;50.806;11.586;2023-08-21T08:55:05;9.15;;;8.25;;
47866;SDS011;33628;50.806;11.586;2023-08-21T08:57:32;8.93;;;7.78;;
47866;SDS011;33628;50.806;11.586;2023-08-21T08:59:59;11.20;;;8.07;;
47866;SDS011;33628;50.806;11.586;2023-08-21T09:02:27;8.38;;;7.15;;
47866;SDS011;33628;50.806;11.586;2023-08-21T09:04:54;11.55;;;7.38;;
47866;SDS011;33628;50.806;11.586;2023-08-21T09:07:20;10.32;;;6.35;;
47866;SDS011;33628;50.806;11.586;2023-08-21T09:09:49;11.25;;;7.18;;
47866;SDS011;33628;50.806;11.586;2023-08-21T09:12:18;8.32;;;6.55;;
47866;SDS011;33628;50.806;11.586;2023-08-21T09:14:46;9.98;;;6.15;;
47866;SDS011;33628;50.806;11.586;2023-08-21T09:17:13;12.57;;;5.80;;
47866;SDS011;33628;50.806;11.586;2023-08-21T09:19:41;8.00;;;6.22;;
47866;SDS011;33628;50.806;11.586;2023-08-21T09:22:09;8.20;;;6.15;;
47866;SDS011;33628;50.806;11.586;2023-08-21T09:24:36;6.38;;;5.10;;
47866;SDS011;33628;50.806;11.586;2023-08-21T09:27:05;7.30;;;5.28;;
47866;SDS011;33628;50.806;11.586;2023-08-21T09:29:41;6.68;;;4.97;;
47866;SDS011;33628;50.806;11.586;2023-08-21T09:32:08;12.15;;;5.70;;
47866;SDS011;33628;50.806;11.586;2023-08-21T09:34:35;8.15;;;4.63;;
47866;SDS011;33628;50.806;11.586;2023-08-21T09:37:04;7.93;;;4.47;;
47866;SDS011;33628;50.806;11.586;2023-08-21T09:39:33;5.07;;;4.50;;
47866;SDS011;33628;50.806;11.586;2023-08-21T09:42:00;8.57;;;5.50;;
47866;SDS011;33628;50.806;11.586;2023-08-21T09:44:29;7.05;;;5.15;;
47866;SDS011;33628;50.806;11.586;2023-08-21T09:47:02;5.88;;;4.32;;
47866;SDS011;33628;50.806;11.586;2023-08-21T09:49:30;5.03;;;4.10;;
47866;SDS011;33628;50.806;11.586;2023-08-21T09:51:57;17.08;;;5.60;;
47866;SDS011;33628;50.806;11.586;2023-08-21T09:54:24;7.68;;;5.20;;
47866;SDS011;33628;50.806;11.586;2023-08-21T09:56:51;8.25;;;5.15;;
47866;SDS011;33628;50.806;11.586;2023-08-21T09:59:17;8.10;;;7.15;;
47866;SDS011;33628;50.806;11.586;2023-08-21T10:01:46;6.35;;;5.63;;
47866;SDS011;33628;50.806;11.586;2023-08-21T10:04:16;7.82;;;6.45;;
47866;SDS011;33628;50.806;11.586;2023-08-21T10:06:44;8.52;;;5.38;;
47866;SDS011;33628;50.806;11.586;2023-08-21T10:09:11;6.22;;;5.47;;
47866;SDS011;33628;50.806;11.586;2023-08-21T10:11:38;8.05;;;5.70;;
47866;SDS011;33628;50.806;11.586;2023-08-21T10:14:06;6.32;;;5.70;;
47866;SDS011;33628;50.806;11.586;2023-08-21T10:16:33;6.97;;;5.43;;
47866;SDS011;33628;50.806;11.586;2023-08-21T10:19:03;6.30;;;5.68;;
47866;SDS011;33628;50.806;11.586;2023-08-21T10:21:36;6.70;;;5.65;;
47866;SDS011;33628;50.806;11.586;2023-08-21T10:24:03;8.15;;;5.57;;
47866;SDS011;33628;50.806;11.586;2023-08-21T10:26:38;7.03;;;6.00;;
47866;SDS011;33628;50.806;11.586;2023-08-21T10:29:07;8.75;;;5.68;;
47866;SDS011;33628;50.806;11.586;2023-08-21T10:31:35;6.55;;;5.53;;
47866;SDS011;33628;50.806;11.586;2023-08-21T10:34:12;7.75;;;6.50;;
47866;SDS011;33628;50.806;11.586;2023-08-21T10:39:35;9.98;;;6.72;;
47866;SDS011;33628;50.806;11.586;2023-08-21T10:42:04;8.38;;;6.78;;
47866;SDS011;33628;50.806;11.586;2023-08-21T10:44:49;11.45;;;8.10;;
47866;SDS011;33628;50.806;11.586;2023-08-21T10:47:19;8.52;;;6.60;;
47866;SDS011;33628;50.806;11.586;2023-08-21T10:49:52;10.73;;;6.63;;
47866;SDS011;33628;50.806;11.586;2023-08-21T10:52:20;7.90;;;7.10;;
47866;SDS011;33628;50.806;11.586;2023-08-21T10:55:15;8.30;;;6.32;;
47866;SDS011;33628;50.806;11.586;2023-08-21T10:57:45;9.98;;;7.15;;
47866;SDS011;33628;50.806;11.586;2023-08-21T11:00:12;8.68;;;6.43;;
47866;SDS011;33628;50.806;11.586;2023-08-21T11:02:43;9.40;;;6.88;;
47866;SDS011;33628;50.806;11.586;2023-08-21T11:05:13;11.77;;;7.15;;
47866;SDS011;33628;50.806;11.586;2023-08-21T11:07:41;9.48;;;6.95;;
47866;SDS011;33628;50.806;11.586;2023-08-21T11:10:10;8.05;;;6.75;;
47866;SDS011;33628;50.806;11.586;2023-08-21T11:12:47;7.88;;;6.53;;
47866;SDS011;33628;50.806;11.586;2023-08-21T11:15:15;9.18;;;6.70;;
47866;SDS011;33628;50.806;11.586;2023-08-21T11:17:42;12.88;;;6.68;;
47866;SDS011;33628;50.806;11.586;2023-08-21T11:20:09;7.35;;;6.57;;
47866;SDS011;33628;50.806;11.586;2023-08-21T11:22:37;7.40;;;6.20;;
47866;SDS011;33628;50.806;11.586;2023-08-21T11:25:04;6.28;;;5.68;;
47866;SDS011;33628;50.806;11.586;2023-08-21T11:27:32;9.02;;;6.13;;
47866;SDS011;33628;50.806;11.586;2023-08-21T11:29:59;7.90;;;6.45;;
47866;SDS011;33628;50.806;11.586;2023-08-21T11:32:27;7.30;;;6.20;;
47866;SDS011;33628;50.806;11.586;2023-08-21T11:34:54;7.57;;;5.97;;
47866;SDS011;33628;50.806;11.586;2023-08-21T11:37:22;10.32;;;5.85;;
47866;SDS011;33628;50.806;11.586;2023-08-21T11:39:51;7.70;;;6.10;;
47866;SDS011;33628;50.806;11.586;2023-08-21T11:42:19;8.27;;;5.72;;
47866;SDS011;33628;50.806;11.586;2023-08-21T11:44:47;8.40;;;6.65;;
47866;SDS011;33628;50.806;11.586;2023-08-21T11:47:16;8.50;;;5.68;;
47866;SDS011;33628;50.806;11.586;2023-08-21T11:49:44;8.65;;;4.78;;
47866;SDS011;33628;50.806;11.586;2023-08-21T11:52:13;8.27;;;4.70;;
47866;SDS011;33628;50.806;11.586;2023-08-21T11:54:43;5.78;;;4.60;;
47866;SDS011;33628;50.806;11.586;2023-08-21T11:57:15;6.00;;;4.20;;
47866;SDS011;33628;50.806;11.586;2023-08-21T11:59:42;6.45;;;5.18;;
47866;SDS011;33628;50.806;11.586;2023-08-21T12:02:17;6.78;;;4.60;;
47866;SDS011;33628;50.806;11.586;2023-08-21T12:04:45;5.07;;;4.57;;
47866;SDS011;33628;50.806;11.586;2023-08-21T12:07:18;6.30;;;4.85;;
47866;SDS011;33628;50.806;11.586;2023-08-21T12:09:46;7.22;;;5.13;;
47866;SDS011;33628;50.806;11.586;2023-08-21T12:12:15;6.40;;;5.15;;
47866;SDS011;33628;50.806;11.586;2023-08-21T12:14:42;12.77;;;5.43;;
47866;SDS011;33628;50.806;11.586;2023-08-21T12:17:08;5.78;;;4.78;;
47866;SDS011;33628;50.806;11.586;2023-08-21T12:19:36;5.82;;;5.22;;
47866;SDS011;33628;50.806;11.586;2023-08-21T12:22:02;5.40;;;4.80;;
47866;SDS011;33628;50.806;11.586;2023-08-21T12:24:30;7.15;;;5.05;;
47866;SDS011;33628;50.806;11.586;2023-08-21T12:26:57;6.35;;;5.15;;
47866;SDS011;33628;50.806;11.586;2023-08-21T12:29:26;6.25;;;4.78;;
47866;SDS011;33628;50.806;11.586;2023-08-21T12:31:53;6.70;;;4.97;;
47866;SDS011;33628;50.806;11.586;2023-08-21T12:34:19;5.68;;;4.90;;
47866;SDS011;33628;50.806;11.586;2023-08-21T12:36:46;5.60;;;4.78;;
47866;SDS011;33628;50.806;11.586;2023-08-21T12:39:12;5.70;;;4.50;;
47866;SDS011;33628;50.806;11.586;2023-08-21T12:41:42;5.40;;;4.88;;
47866;SDS011;33628;50.806;11.586;2023-08-21T12:44:09;6.78;;;4.70;;
47866;SDS011;33628;50.806;11.586;2023-08-21T12:46:37;6.38;;;4.32;;
47866;SDS011;33628;50.806;11.586;2023-08-21T12:49:03;8.45;;;5.15;;
47866;SDS011;33628;50.806;11.586;2023-08-21T12:51:30;7.32;;;4.97;;
47866;SDS011;33628;50.806;11.586;2023-08-21T12:53:56;7.70;;;4.68;;
47866;SDS011;33628;50.806;11.586;2023-08-21T12:56:23;6.25;;;4.90;;
47866;SDS011;33628;50.806;11.586;2023-08-21T12:58:50;6.57;;;4.72;;
47866;SDS011;33628;50.806;11.586;2023-08-21T13:01:17;7.68;;;4.97;;
47866;SDS011;33628;50.806;11.586;2023-08-21T13:03:47;6.35;;;4.70;;
47866;SDS011;33628;50.806;11.586;2023-08-21T13:06:14;7.13;;;4.53;;
47866;SDS011;33628;50.806;11.586;2023-08-21T13:08:41;6.30;;;4.80;;
47866;SDS011;33628;50.806;11.586;2023-08-21T13:11:09;5.43;;;4.60;;
47866;SDS011;33628;50.806;11.586;2023-08-21T13:13:36;5.80;;;4.38;;
47866;SDS011;33628;50.806;11.586;2023-08-21T13:16:02;6.00;;;4.55;;
47866;SDS011;33628;50.806;11.586;2023-08-21T13:18:29;5.55;;;4.90;;
47866;SDS011;33628;50.806;11.586;2023-08-21T13:20:57;7.60;;;4.88;;
47866;SDS011;33628;50.806;11.586;2023-08-21T13:23:25;5.88;;;4.40;;
47866;SDS011;33628;50.806;11.586;2023-08-21T13:25:51;9.60;;;4.68;;
47866;SDS011;33628;50.806;11.586;2023-08-21T13:28:18;6.18;;;4.43;;
47866;SDS011;33628;50.806;11.586;2023-08-21T13:30:44;5.75;;;4.45;;
47866;SDS011;33628;50.806;11.586;2023-08-21T13:33:11;6.90;;;4.80;;
47866;SDS011;33628;50.806;11.586;2023-08-21T13:35:39;5.97;;;4.80;;
47866;SDS011;33628;50.806;11.586;2023-08-21T13:38:07;6.95;;;5.30;;
47866;SDS011;33628;50.806;11.586;2023-08-21T13:40:34;8.88;;;5.07;;
47866;SDS011;33628;50.806;11.586;2023-08-21T13:43:00;7.82;;;5.40;;
47866;SDS011;33628;50.806;11.586;2023-08-21T13:45:29;7.38;;;6.15;;
47866;SDS011;33628;50.806;11.586;2023-08-21T13:47:56;6.75;;;5.05;;
47866;SDS011;33628;50.806;11.586;2023-08-21T13:50:22;8.02;;;5.43;;
47866;SDS011;33628;50.806;11.586;2023-08-21T13:52:49;7.57;;;5.32;;
47866;SDS011;33628;50.806;11.586;2023-08-21T13:55:17;11.02;;;5.50;;
47866;SDS011;33628;50.806;11.586;2023-08-21T13:57:44;6.45;;;5.35;;
47866;SDS011;33628;50.806;11.586;2023-08-21T14:00:11;8.05;;;5.38;;
47866;SDS011;33628;50.806;11.586;2023-08-21T14:02:38;7.93;;;5.22;;
47866;SDS011;33628;50.806;11.586;2023-08-21T14:05:06;6.93;;;5.32;;
47866;SDS011;33628;50.806;11.586;2023-08-21T14:07:34;6.78;;;5.57;;
47866;SDS011;33628;50.806;11.586;2023-08-21T14:10:01;10.60;;;5.38;;
47866;SDS011;33628;50.806;11.586;2023-08-21T14:12:29;7.75;;;5.45;;
47866;SDS011;33628;50.806;11.586;2023-08-21T14:14:57;7.05;;;5.35;;
47866;SDS011;33628;50.806;11.586;2023-08-21T14:17:25;9.20;;;5.30;;
47866;SDS011;33628;50.806;11.586;2023-08-21T14:19:51;7.65;;;5.20;;
47866;SDS011;33628;50.806;11.586;2023-08-21T14:22:18;7.28;;;5.50;;
47866;SDS011;33628;50.806;11.586;2023-08-21T14:24:44;5.75;;;5.07;;